sensor_id;sensor_type;location;lat;lon;timestamp;temperature;humidity
6724;DHT22;3399;52.530;13.304;2022-10-22T00:02:19;14.60;99.90
6724;DHT22;3399;52.530;13.304;2022-10-22T00:04:46;14.60;99.90
6724;DHT22;3399;52.530;13.304;2022-10-22T00:07:13;14.60;99.90
6724;DHT22;3399;52.530;13.304;2022-10-22T00:09:38;14.60;99.90
6724;DHT22;3399;52.530;13.304;2022-10-22T00:12:04;14.60;99.90
6724;DHT22;3399;52.530;13.304;2022-10-22T00:14:30;14.60;99.90
6724;DHT22;3399;52.530;13.304;2022-10-22T00:16:55;14.60;99.90
6724;DHT22;3399;52.530;13.304;2022-10-22T00:19:21;14.60;99.90
6724;DHT22;3399;52.530;13.304;2022-10-22T00:21:46;14.60;99.90
6724;DHT22;3399;52.530;13.304;2022-10-22T00:24:12;14.60;99.90
6724;DHT22;3399;52.530;13.304;2022-10-22T00:26:37;14.60;99.90
6724;DHT22;3399;52.530;13.304;2022-10-22T00:29:04;14.70;99.90
6724;DHT22;3399;52.530;13.304;2022-10-22T00:31:30;14.60;99.90
6724;DHT22;3399;52.530;13.304;2022-10-22T00:33:55;14.70;99.90
6724;DHT22;3399;52.530;13.304;2022-10-22T00:36:20;14.70;99.90
6724;DHT22;3399;52.530;13.304;2022-10-22T00:38:46;14.70;99.90
6724;DHT22;3399;52.530;13.304;2022-10-22T00:41:12;14.70;99.90
6724;DHT22;3399;52.530;13.304;2022-10-22T00:44:02;14.70;99.90
6724;DHT22;3399;52.530;13.304;2022-10-22T00:46:28;14.70;99.90
6724;DHT22;3399;52.530;13.304;2022-10-22T00:48:55;14.60;99.90
6724;DHT22;3399;52.530;13.304;2022-10-22T00:51:25;14.60;99.90
6724;DHT22;3399;52.530;13.304;2022-10-22T00:53:55;14.60;99.90
6724;DHT22;3399;52.530;13.304;2022-10-22T00:56:22;14.60;99.90
6724;DHT22;3399;52.530;13.304;2022-10-22T00:58:51;14.50;99.90
6724;DHT22;3399;52.530;13.304;2022-10-22T01:01:20;14.50;99.90
6724;DHT22;3399;52.530;13.304;2022-10-22T01:03:47;14.50;99.90
6724;DHT22;3399;52.530;13.304;2022-10-22T01:06:20;14.50;99.90
6724;DHT22;3399;52.530;13.304;2022-10-22T01:17:17;14.40;99.90
6724;DHT22;3399;52.530;13.304;2022-10-22T01:19:55;14.40;99.90
6724;DHT22;3399;52.530;13.304;2022-10-22T01:22:28;14.40;99.90
6724;DHT22;3399;52.530;13.304;2022-10-22T01:27:52;14.40;99.90
6724;DHT22;3399;52.530;13.304;2022-10-22T01:30:21;14.40;99.90
6724;DHT22;3399;52.530;13.304;2022-10-22T01:32:50;14.40;99.90
6724;DHT22;3399;52.530;13.304;2022-10-22T01:35:21;14.40;99.90
6724;DHT22;3399;52.530;13.304;2022-10-22T01:37:52;14.40;99.90
6724;DHT22;3399;52.530;13.304;2022-10-22T01:40:19;14.30;99.90
6724;DHT22;3399;52.530;13.304;2022-10-22T01:43:04;14.30;99.90
6724;DHT22;3399;52.530;13.304;2022-10-22T01:45:35;14.30;99.90
6724;DHT22;3399;52.530;13.304;2022-10-22T01:50:45;14.30;99.90
6724;DHT22;3399;52.530;13.304;2022-10-22T01:58:47;14.20;99.90
6724;DHT22;3399;52.530;13.304;2022-10-22T02:01:34;14.20;99.90
6724;DHT22;3399;52.530;13.304;2022-10-22T02:07:11;14.20;99.90
6724;DHT22;3399;52.530;13.304;2022-10-22T02:09:39;14.20;99.90
6724;DHT22;3399;52.530;13.304;2022-10-22T02:12:07;14.20;99.90
6724;DHT22;3399;52.530;13.304;2022-10-22T02:14:36;14.20;99.90
6724;DHT22;3399;52.530;13.304;2022-10-22T02:17:02;14.20;99.90
6724;DHT22;3399;52.530;13.304;2022-10-22T02:22:46;14.10;99.90
6724;DHT22;3399;52.530;13.304;2022-10-22T02:25:12;14.10;99.90
6724;DHT22;3399;52.530;13.304;2022-10-22T02:30:36;14.10;99.90
6724;DHT22;3399;52.530;13.304;2022-10-22T02:33:29;14.10;99.90
6724;DHT22;3399;52.530;13.304;2022-10-22T02:35:58;14.10;99.90
6724;DHT22;3399;52.530;13.304;2022-10-22T02:38:24;14.10;99.90
6724;DHT22;3399;52.530;13.304;2022-10-22T02:40:51;14.10;99.90
6724;DHT22;3399;52.530;13.304;2022-10-22T02:43:17;14.10;99.90
6724;DHT22;3399;52.530;13.304;2022-10-22T02:45:43;14.10;99.90
6724;DHT22;3399;52.530;13.304;2022-10-22T02:48:09;14.10;99.90
6724;DHT22;3399;52.530;13.304;2022-10-22T02:50:34;14.10;99.90
6724;DHT22;3399;52.530;13.304;2022-10-22T02:53:00;14.10;99.90
6724;DHT22;3399;52.530;13.304;2022-10-22T02:55:25;14.10;99.90
6724;DHT22;3399;52.530;13.304;2022-10-22T02:57:51;14.10;99.90
6724;DHT22;3399;52.530;13.304;2022-10-22T03:00:17;14.10;99.90
6724;DHT22;3399;52.530;13.304;2022-10-22T03:02:42;14.10;99.90
6724;DHT22;3399;52.530;13.304;2022-10-22T03:05:08;14.10;99.90
6724;DHT22;3399;52.530;13.304;2022-10-22T03:07:34;14.10;99.90
6724;DHT22;3399;52.530;13.304;2022-10-22T03:09:59;14.10;99.90
6724;DHT22;3399;52.530;13.304;2022-10-22T03:12:25;14.10;99.90
6724;DHT22;3399;52.530;13.304;2022-10-22T03:14:50;14.10;99.90
6724;DHT22;3399;52.530;13.304;2022-10-22T03:17:16;14.10;99.90
6724;DHT22;3399;52.530;13.304;2022-10-22T03:19:41;14.10;99.90
6724;DHT22;3399;52.530;13.304;2022-10-22T03:22:17;14.10;99.90
6724;DHT22;3399;52.530;13.304;2022-10-22T03:24:47;14.10;99.90
6724;DHT22;3399;52.530;13.304;2022-10-22T03:27:17;14.10;99.90
6724;DHT22;3399;52.530;13.304;2022-10-22T03:29:44;14.10;99.90
6724;DHT22;3399;52.530;13.304;2022-10-22T03:32:11;14.10;99.90
6724;DHT22;3399;52.530;13.304;2022-10-22T03:34:37;14.10;99.90
6724;DHT22;3399;52.530;13.304;2022-10-22T03:37:03;14.10;99.90
6724;DHT22;3399;52.530;13.304;2022-10-22T03:39:30;14.10;99.90
6724;DHT22;3399;52.530;13.304;2022-10-22T03:41:57;14.10;99.90
6724;DHT22;3399;52.530;13.304;2022-10-22T03:44:24;14.10;99.90
6724;DHT22;3399;52.530;13.304;2022-10-22T03:46:50;14.10;99.90
6724;DHT22;3399;52.530;13.304;2022-10-22T03:49:15;14.10;99.90
6724;DHT22;3399;52.530;13.304;2022-10-22T03:51:41;14.10;99.90
6724;DHT22;3399;52.530;13.304;2022-10-22T03:54:06;14.10;99.90
6724;DHT22;3399;52.530;13.304;2022-10-22T03:56:32;14.10;99.90
6724;DHT22;3399;52.530;13.304;2022-10-22T03:58:59;14.10;99.90
6724;DHT22;3399;52.530;13.304;2022-10-22T04:01:27;14.10;99.90
6724;DHT22;3399;52.530;13.304;2022-10-22T04:03:57;14.10;99.90
6724;DHT22;3399;52.530;13.304;2022-10-22T04:06:23;14.10;99.90
6724;DHT22;3399;52.530;13.304;2022-10-22T04:08:49;14.00;99.90
6724;DHT22;3399;52.530;13.304;2022-10-22T04:11:15;14.00;99.90
6724;DHT22;3399;52.530;13.304;2022-10-22T04:13:41;14.00;99.90
6724;DHT22;3399;52.530;13.304;2022-10-22T04:16:12;14.00;99.90
6724;DHT22;3399;52.530;13.304;2022-10-22T04:18:38;14.00;99.90
6724;DHT22;3399;52.530;13.304;2022-10-22T04:21:05;14.00;99.90
6724;DHT22;3399;52.530;13.304;2022-10-22T04:23:31;14.00;99.90
6724;DHT22;3399;52.530;13.304;2022-10-22T04:26:01;14.00;99.90
6724;DHT22;3399;52.530;13.304;2022-10-22T04:28:27;14.00;99.90
6724;DHT22;3399;52.530;13.304;2022-10-22T04:30:52;14.00;99.90
6724;DHT22;3399;52.530;13.304;2022-10-22T04:33:18;13.90;99.90
6724;DHT22;3399;52.530;13.304;2022-10-22T04:35:44;13.90;99.90
6724;DHT22;3399;52.530;13.304;2022-10-22T04:38:10;13.90;99.90
6724;DHT22;3399;52.530;13.304;2022-10-22T04:40:36;14.00;99.90
6724;DHT22;3399;52.530;13.304;2022-10-22T04:43:02;14.00;99.90
6724;DHT22;3399;52.530;13.304;2022-10-22T04:45:27;13.90;99.90
6724;DHT22;3399;52.530;13.304;2022-10-22T04:47:52;14.00;99.90
6724;DHT22;3399;52.530;13.304;2022-10-22T04:50:18;13.90;99.90
6724;DHT22;3399;52.530;13.304;2022-10-22T04:52:44;13.90;99.90
6724;DHT22;3399;52.530;13.304;2022-10-22T04:55:09;13.90;99.90
6724;DHT22;3399;52.530;13.304;2022-10-22T04:57:35;13.90;99.90
6724;DHT22;3399;52.530;13.304;2022-10-22T05:00:00;13.90;99.90
6724;DHT22;3399;52.530;13.304;2022-10-22T05:02:26;13.90;99.90
6724;DHT22;3399;52.530;13.304;2022-10-22T05:04:51;13.90;99.90
6724;DHT22;3399;52.530;13.304;2022-10-22T05:07:17;13.80;99.90
6724;DHT22;3399;52.530;13.304;2022-10-22T05:09:42;13.80;99.90
6724;DHT22;3399;52.530;13.304;2022-10-22T05:12:08;13.80;99.90
6724;DHT22;3399;52.530;13.304;2022-10-22T05:14:33;13.80;99.90
6724;DHT22;3399;52.530;13.304;2022-10-22T05:16:59;13.80;99.90
6724;DHT22;3399;52.530;13.304;2022-10-22T05:19:26;13.70;99.90
6724;DHT22;3399;52.530;13.304;2022-10-22T05:21:54;13.70;99.90
6724;DHT22;3399;52.530;13.304;2022-10-22T05:24:20;13.70;99.90
6724;DHT22;3399;52.530;13.304;2022-10-22T05:26:49;13.70;99.90
6724;DHT22;3399;52.530;13.304;2022-10-22T05:29:15;13.70;99.90
6724;DHT22;3399;52.530;13.304;2022-10-22T05:31:40;13.70;99.90
6724;DHT22;3399;52.530;13.304;2022-10-22T05:34:06;13.70;99.90
6724;DHT22;3399;52.530;13.304;2022-10-22T05:36:31;13.70;99.90
6724;DHT22;3399;52.530;13.304;2022-10-22T05:38:57;13.70;99.90
6724;DHT22;3399;52.530;13.304;2022-10-22T05:41:24;13.70;99.90
6724;DHT22;3399;52.530;13.304;2022-10-22T05:43:50;13.70;99.90
6724;DHT22;3399;52.530;13.304;2022-10-22T05:46:20;13.70;99.90
6724;DHT22;3399;52.530;13.304;2022-10-22T05:48:55;13.60;99.90
6724;DHT22;3399;52.530;13.304;2022-10-22T05:51:21;13.60;99.90
6724;DHT22;3399;52.530;13.304;2022-10-22T05:53:51;13.60;99.90
6724;DHT22;3399;52.530;13.304;2022-10-22T05:56:17;13.60;99.90
6724;DHT22;3399;52.530;13.304;2022-10-22T05:58:43;13.60;99.90
6724;DHT22;3399;52.530;13.304;2022-10-22T06:01:16;13.60;99.90
6724;DHT22;3399;52.530;13.304;2022-10-22T06:03:41;13.60;99.90
6724;DHT22;3399;52.530;13.304;2022-10-22T06:06:18;13.60;99.90
6724;DHT22;3399;52.530;13.304;2022-10-22T06:08:46;13.60;99.90
6724;DHT22;3399;52.530;13.304;2022-10-22T06:11:12;13.60;99.90
6724;DHT22;3399;52.530;13.304;2022-10-22T06:13:37;13.60;99.90
6724;DHT22;3399;52.530;13.304;2022-10-22T06:16:03;13.60;99.90
6724;DHT22;3399;52.530;13.304;2022-10-22T06:18:29;13.60;99.90
6724;DHT22;3399;52.530;13.304;2022-10-22T06:20:54;13.60;99.90
6724;DHT22;3399;52.530;13.304;2022-10-22T06:23:19;13.60;99.90
6724;DHT22;3399;52.530;13.304;2022-10-22T06:25:55;13.70;99.90
6724;DHT22;3399;52.530;13.304;2022-10-22T06:28:21;13.70;99.90
6724;DHT22;3399;52.530;13.304;2022-10-22T06:30:47;13.70;99.90
6724;DHT22;3399;52.530;13.304;2022-10-22T06:33:12;13.80;99.90
6724;DHT22;3399;52.530;13.304;2022-10-22T06:35:37;13.80;99.90
6724;DHT22;3399;52.530;13.304;2022-10-22T06:38:03;13.90;99.90
6724;DHT22;3399;52.530;13.304;2022-10-22T06:40:28;13.90;99.90
6724;DHT22;3399;52.530;13.304;2022-10-22T06:42:54;13.90;99.90
6724;DHT22;3399;52.530;13.304;2022-10-22T06:45:19;13.90;99.90
6724;DHT22;3399;52.530;13.304;2022-10-22T06:47:45;13.90;99.90
6724;DHT22;3399;52.530;13.304;2022-10-22T06:50:11;14.00;99.90
6724;DHT22;3399;52.530;13.304;2022-10-22T06:52:37;14.00;99.90
6724;DHT22;3399;52.530;13.304;2022-10-22T06:55:03;14.00;99.90
6724;DHT22;3399;52.530;13.304;2022-10-22T06:57:29;14.10;99.90
6724;DHT22;3399;52.530;13.304;2022-10-22T06:59:55;14.10;99.90
6724;DHT22;3399;52.530;13.304;2022-10-22T07:02:20;14.10;99.90
6724;DHT22;3399;52.530;13.304;2022-10-22T07:04:46;14.20;99.90
6724;DHT22;3399;52.530;13.304;2022-10-22T07:07:11;14.20;99.90
6724;DHT22;3399;52.530;13.304;2022-10-22T07:09:37;14.20;99.90
6724;DHT22;3399;52.530;13.304;2022-10-22T07:12:03;14.20;99.90
6724;DHT22;3399;52.530;13.304;2022-10-22T07:14:29;14.20;99.90
6724;DHT22;3399;52.530;13.304;2022-10-22T07:16:54;14.30;99.90
6724;DHT22;3399;52.530;13.304;2022-10-22T07:19:20;14.30;99.90
6724;DHT22;3399;52.530;13.304;2022-10-22T07:21:45;14.30;99.90
6724;DHT22;3399;52.530;13.304;2022-10-22T07:24:11;14.40;99.90
6724;DHT22;3399;52.530;13.304;2022-10-22T07:26:36;14.40;99.90
6724;DHT22;3399;52.530;13.304;2022-10-22T07:29:02;14.40;99.90
6724;DHT22;3399;52.530;13.304;2022-10-22T07:31:28;14.40;99.90
6724;DHT22;3399;52.530;13.304;2022-10-22T07:33:54;14.50;99.90
6724;DHT22;3399;52.530;13.304;2022-10-22T07:36:20;14.60;99.90
6724;DHT22;3399;52.530;13.304;2022-10-22T07:38:47;14.60;99.90
6724;DHT22;3399;52.530;13.304;2022-10-22T07:41:15;14.60;99.90
6724;DHT22;3399;52.530;13.304;2022-10-22T07:43:41;14.70;99.90
6724;DHT22;3399;52.530;13.304;2022-10-22T07:46:06;14.70;99.90
6724;DHT22;3399;52.530;13.304;2022-10-22T07:48:34;14.70;99.90
6724;DHT22;3399;52.530;13.304;2022-10-22T07:50:59;14.80;99.90
6724;DHT22;3399;52.530;13.304;2022-10-22T07:53:25;14.90;99.90
6724;DHT22;3399;52.530;13.304;2022-10-22T07:55:51;14.90;99.90
6724;DHT22;3399;52.530;13.304;2022-10-22T07:58:18;14.90;99.90
6724;DHT22;3399;52.530;13.304;2022-10-22T08:00:44;15.00;99.90
6724;DHT22;3399;52.530;13.304;2022-10-22T08:03:11;15.00;99.90
6724;DHT22;3399;52.530;13.304;2022-10-22T08:05:36;14.90;99.90
6724;DHT22;3399;52.530;13.304;2022-10-22T08:08:04;14.90;99.90
6724;DHT22;3399;52.530;13.304;2022-10-22T08:10:31;14.90;99.90
6724;DHT22;3399;52.530;13.304;2022-10-22T08:12:57;15.00;99.90
6724;DHT22;3399;52.530;13.304;2022-10-22T08:15:22;15.00;99.90
6724;DHT22;3399;52.530;13.304;2022-10-22T08:17:50;15.00;99.90
6724;DHT22;3399;52.530;13.304;2022-10-22T08:20:15;15.00;99.90
6724;DHT22;3399;52.530;13.304;2022-10-22T08:22:41;15.00;99.90
6724;DHT22;3399;52.530;13.304;2022-10-22T08:25:07;15.00;99.90
6724;DHT22;3399;52.530;13.304;2022-10-22T08:27:32;15.00;99.90
6724;DHT22;3399;52.530;13.304;2022-10-22T08:29:58;15.00;99.90
6724;DHT22;3399;52.530;13.304;2022-10-22T08:32:23;15.10;99.90
6724;DHT22;3399;52.530;13.304;2022-10-22T08:34:49;15.10;99.90
6724;DHT22;3399;52.530;13.304;2022-10-22T08:37:14;15.00;99.90
6724;DHT22;3399;52.530;13.304;2022-10-22T08:39:41;15.10;99.90
6724;DHT22;3399;52.530;13.304;2022-10-22T08:45:12;15.10;99.90
6724;DHT22;3399;52.530;13.304;2022-10-22T08:47:53;15.10;99.90
6724;DHT22;3399;52.530;13.304;2022-10-22T08:50:33;15.10;99.90
6724;DHT22;3399;52.530;13.304;2022-10-22T08:53:03;15.10;99.90
6724;DHT22;3399;52.530;13.304;2022-10-22T08:55:30;15.20;99.90
6724;DHT22;3399;52.530;13.304;2022-10-22T08:58:03;15.20;99.90
6724;DHT22;3399;52.530;13.304;2022-10-22T09:00:59;15.30;99.90
6724;DHT22;3399;52.530;13.304;2022-10-22T09:03:48;15.30;99.90
6724;DHT22;3399;52.530;13.304;2022-10-22T09:06:21;15.30;99.90
6724;DHT22;3399;52.530;13.304;2022-10-22T09:08:48;15.30;99.90
6724;DHT22;3399;52.530;13.304;2022-10-22T09:11:17;15.20;99.90
6724;DHT22;3399;52.530;13.304;2022-10-22T09:13:45;15.20;99.90
6724;DHT22;3399;52.530;13.304;2022-10-22T09:16:37;15.30;99.90
6724;DHT22;3399;52.530;13.304;2022-10-22T09:19:24;15.30;99.90
6724;DHT22;3399;52.530;13.304;2022-10-22T09:27:13;15.50;99.90
6724;DHT22;3399;52.530;13.304;2022-10-22T09:29:39;15.50;99.90
6724;DHT22;3399;52.530;13.304;2022-10-22T09:32:05;15.60;99.90
6724;DHT22;3399;52.530;13.304;2022-10-22T09:34:31;15.50;99.90
6724;DHT22;3399;52.530;13.304;2022-10-22T09:37:05;15.50;99.90
6724;DHT22;3399;52.530;13.304;2022-10-22T09:39:34;15.60;99.90
6724;DHT22;3399;52.530;13.304;2022-10-22T09:42:01;15.70;99.90
6724;DHT22;3399;52.530;13.304;2022-10-22T09:44:27;15.80;99.90
6724;DHT22;3399;52.530;13.304;2022-10-22T09:46:53;15.90;99.90
6724;DHT22;3399;52.530;13.304;2022-10-22T09:49:21;16.00;99.90
6724;DHT22;3399;52.530;13.304;2022-10-22T09:51:56;16.10;99.90
6724;DHT22;3399;52.530;13.304;2022-10-22T09:57:19;16.10;99.90
6724;DHT22;3399;52.530;13.304;2022-10-22T09:59:50;16.10;99.90
6724;DHT22;3399;52.530;13.304;2022-10-22T10:02:19;16.10;99.90
6724;DHT22;3399;52.530;13.304;2022-10-22T10:04:48;16.10;99.90
6724;DHT22;3399;52.530;13.304;2022-10-22T10:07:29;16.10;99.90
6724;DHT22;3399;52.530;13.304;2022-10-22T10:09:55;16.10;99.90
6724;DHT22;3399;52.530;13.304;2022-10-22T10:12:42;16.10;99.90
6724;DHT22;3399;52.530;13.304;2022-10-22T10:18:30;16.10;99.90
6724;DHT22;3399;52.530;13.304;2022-10-22T10:21:20;16.10;99.90
6724;DHT22;3399;52.530;13.304;2022-10-22T10:26:50;16.20;99.90
6724;DHT22;3399;52.530;13.304;2022-10-22T10:29:32;16.20;99.90
6724;DHT22;3399;52.530;13.304;2022-10-22T10:38:09;16.40;99.90
6724;DHT22;3399;52.530;13.304;2022-10-22T10:40:49;16.30;99.90
6724;DHT22;3399;52.530;13.304;2022-10-22T10:43:44;16.40;99.90
6724;DHT22;3399;52.530;13.304;2022-10-22T10:46:17;16.40;99.90
6724;DHT22;3399;52.530;13.304;2022-10-22T10:48:53;16.30;99.90
6724;DHT22;3399;52.530;13.304;2022-10-22T10:51:48;16.40;99.90
6724;DHT22;3399;52.530;13.304;2022-10-22T10:57:38;16.60;99.90
6724;DHT22;3399;52.530;13.304;2022-10-22T11:00:13;16.70;99.90
6724;DHT22;3399;52.530;13.304;2022-10-22T11:05:50;16.90;99.90
6724;DHT22;3399;52.530;13.304;2022-10-22T11:08:31;17.00;99.90
6724;DHT22;3399;52.530;13.304;2022-10-22T11:11:21;17.00;99.90
6724;DHT22;3399;52.530;13.304;2022-10-22T11:16:52;17.10;99.90
6724;DHT22;3399;52.530;13.304;2022-10-22T11:19:29;17.40;99.90
6724;DHT22;3399;52.530;13.304;2022-10-22T11:22:02;17.60;99.90
6724;DHT22;3399;52.530;13.304;2022-10-22T11:24:36;17.50;99.90
6724;DHT22;3399;52.530;13.304;2022-10-22T11:27:27;17.50;99.90
6724;DHT22;3399;52.530;13.304;2022-10-22T11:30:01;17.50;99.90
6724;DHT22;3399;52.530;13.304;2022-10-22T11:32:28;17.60;99.90
6724;DHT22;3399;52.530;13.304;2022-10-22T11:35:04;17.90;99.90
6724;DHT22;3399;52.530;13.304;2022-10-22T11:37:32;18.30;99.90
6724;DHT22;3399;52.530;13.304;2022-10-22T11:42:43;18.90;99.90
6724;DHT22;3399;52.530;13.304;2022-10-22T12:16:28;21.10;99.90
6724;DHT22;3399;52.530;13.304;2022-10-22T12:19:20;21.00;99.90
6724;DHT22;3399;52.530;13.304;2022-10-22T12:21:56;21.00;99.90
6724;DHT22;3399;52.530;13.304;2022-10-22T12:24:24;21.30;99.90
6724;DHT22;3399;52.530;13.304;2022-10-22T12:26:50;21.70;99.90
6724;DHT22;3399;52.530;13.304;2022-10-22T12:29:18;21.80;99.90
6724;DHT22;3399;52.530;13.304;2022-10-22T12:31:45;21.80;99.90
6724;DHT22;3399;52.530;13.304;2022-10-22T12:34:16;21.90;99.90
6724;DHT22;3399;52.530;13.304;2022-10-22T12:36:43;22.00;99.90
6724;DHT22;3399;52.530;13.304;2022-10-22T12:39:12;22.50;99.90
6724;DHT22;3399;52.530;13.304;2022-10-22T12:41:38;23.00;99.90
6724;DHT22;3399;52.530;13.304;2022-10-22T12:44:04;23.00;99.90
6724;DHT22;3399;52.530;13.304;2022-10-22T12:46:32;23.60;99.90
6724;DHT22;3399;52.530;13.304;2022-10-22T12:49:04;24.00;99.90
6724;DHT22;3399;52.530;13.304;2022-10-22T12:51:31;24.20;99.90
6724;DHT22;3399;52.530;13.304;2022-10-22T12:54:03;23.70;99.90
6724;DHT22;3399;52.530;13.304;2022-10-22T12:56:32;23.30;99.90
6724;DHT22;3399;52.530;13.304;2022-10-22T12:59:05;23.70;99.90
6724;DHT22;3399;52.530;13.304;2022-10-22T13:01:36;24.40;99.90
6724;DHT22;3399;52.530;13.304;2022-10-22T13:06:43;24.50;99.90
6724;DHT22;3399;52.530;13.304;2022-10-22T13:09:23;24.10;99.90
6724;DHT22;3399;52.530;13.304;2022-10-22T13:14:40;23.50;99.90
6724;DHT22;3399;52.530;13.304;2022-10-22T13:17:47;23.50;99.90
6724;DHT22;3399;52.530;13.304;2022-10-22T13:22:24;24.40;99.90
6724;DHT22;3399;52.530;13.304;2022-10-22T13:24:50;25.10;99.90
6724;DHT22;3399;52.530;13.304;2022-10-22T13:27:16;25.20;99.90
6724;DHT22;3399;52.530;13.304;2022-10-22T13:29:42;25.40;99.90
6724;DHT22;3399;52.530;13.304;2022-10-22T13:32:29;25.50;99.90
6724;DHT22;3399;52.530;13.304;2022-10-22T13:35:01;25.60;99.90
6724;DHT22;3399;52.530;13.304;2022-10-22T13:37:29;25.40;99.50
6724;DHT22;3399;52.530;13.304;2022-10-22T13:39:56;25.30;99.90
6724;DHT22;3399;52.530;13.304;2022-10-22T13:42:21;25.00;99.90
6724;DHT22;3399;52.530;13.304;2022-10-22T13:44:47;24.80;99.90
6724;DHT22;3399;52.530;13.304;2022-10-22T13:47:28;25.40;99.60
6724;DHT22;3399;52.530;13.304;2022-10-22T13:49:55;25.60;98.80
6724;DHT22;3399;52.530;13.304;2022-10-22T13:52:29;25.80;98.70
6724;DHT22;3399;52.530;13.304;2022-10-22T13:54:57;25.90;98.00
6724;DHT22;3399;52.530;13.304;2022-10-22T13:57:23;25.60;98.30
6724;DHT22;3399;52.530;13.304;2022-10-22T13:59:48;25.50;98.60
6724;DHT22;3399;52.530;13.304;2022-10-22T14:02:14;25.30;98.70
6724;DHT22;3399;52.530;13.304;2022-10-22T14:04:41;24.90;98.80
6724;DHT22;3399;52.530;13.304;2022-10-22T14:07:16;24.20;99.40
6724;DHT22;3399;52.530;13.304;2022-10-22T14:09:42;23.10;99.90
6724;DHT22;3399;52.530;13.304;2022-10-22T14:12:16;22.30;99.90
6724;DHT22;3399;52.530;13.304;2022-10-22T14:14:42;22.00;99.90
6724;DHT22;3399;52.530;13.304;2022-10-22T14:17:12;21.90;99.90
6724;DHT22;3399;52.530;13.304;2022-10-22T14:19:44;21.80;99.90
6724;DHT22;3399;52.530;13.304;2022-10-22T14:22:16;21.50;99.90
6724;DHT22;3399;52.530;13.304;2022-10-22T14:24:42;21.10;99.90
6724;DHT22;3399;52.530;13.304;2022-10-22T14:27:13;21.10;99.90
6724;DHT22;3399;52.530;13.304;2022-10-22T14:29:40;21.10;99.90
6724;DHT22;3399;52.530;13.304;2022-10-22T14:32:12;21.10;99.90
6724;DHT22;3399;52.530;13.304;2022-10-22T14:34:38;21.00;99.90
6724;DHT22;3399;52.530;13.304;2022-10-22T14:37:04;20.80;99.90
6724;DHT22;3399;52.530;13.304;2022-10-22T14:39:29;20.70;99.90
6724;DHT22;3399;52.530;13.304;2022-10-22T14:41:55;20.50;99.90
6724;DHT22;3399;52.530;13.304;2022-10-22T14:44:20;20.50;99.90
6724;DHT22;3399;52.530;13.304;2022-10-22T14:46:48;20.50;99.90
6724;DHT22;3399;52.530;13.304;2022-10-22T14:49:13;20.40;99.90
6724;DHT22;3399;52.530;13.304;2022-10-22T14:51:39;20.40;99.90
6724;DHT22;3399;52.530;13.304;2022-10-22T14:54:04;20.30;99.90
6724;DHT22;3399;52.530;13.304;2022-10-22T14:56:30;20.20;99.90
6724;DHT22;3399;52.530;13.304;2022-10-22T14:58:56;20.10;99.90
6724;DHT22;3399;52.530;13.304;2022-10-22T15:01:21;20.10;99.90
6724;DHT22;3399;52.530;13.304;2022-10-22T15:03:47;20.00;99.90
6724;DHT22;3399;52.530;13.304;2022-10-22T15:06:12;19.90;99.90
6724;DHT22;3399;52.530;13.304;2022-10-22T15:08:38;19.90;99.90
6724;DHT22;3399;52.530;13.304;2022-10-22T15:11:10;19.80;99.90
6724;DHT22;3399;52.530;13.304;2022-10-22T15:13:38;19.70;99.90
6724;DHT22;3399;52.530;13.304;2022-10-22T15:16:07;19.70;99.90
6724;DHT22;3399;52.530;13.304;2022-10-22T15:18:33;19.50;99.90
6724;DHT22;3399;52.530;13.304;2022-10-22T15:21:01;19.50;99.90
6724;DHT22;3399;52.530;13.304;2022-10-22T15:23:27;19.40;99.90
6724;DHT22;3399;52.530;13.304;2022-10-22T15:25:53;19.40;99.90
6724;DHT22;3399;52.530;13.304;2022-10-22T15:28:19;19.30;99.90
6724;DHT22;3399;52.530;13.304;2022-10-22T15:30:51;19.20;99.90
6724;DHT22;3399;52.530;13.304;2022-10-22T15:33:17;19.20;99.90
6724;DHT22;3399;52.530;13.304;2022-10-22T15:35:42;19.10;99.90
6724;DHT22;3399;52.530;13.304;2022-10-22T15:38:08;19.10;99.90
6724;DHT22;3399;52.530;13.304;2022-10-22T15:40:34;19.00;99.90
6724;DHT22;3399;52.530;13.304;2022-10-22T15:42:59;18.90;99.90
6724;DHT22;3399;52.530;13.304;2022-10-22T15:45:25;18.90;99.90
6724;DHT22;3399;52.530;13.304;2022-10-22T15:47:50;18.80;99.90
6724;DHT22;3399;52.530;13.304;2022-10-22T15:50:16;18.80;99.90
6724;DHT22;3399;52.530;13.304;2022-10-22T15:52:41;18.80;99.90
6724;DHT22;3399;52.530;13.304;2022-10-22T15:55:07;18.70;99.90
6724;DHT22;3399;52.530;13.304;2022-10-22T15:57:35;18.60;99.90
6724;DHT22;3399;52.530;13.304;2022-10-22T16:00:00;18.60;99.90
6724;DHT22;3399;52.530;13.304;2022-10-22T16:02:26;18.50;99.90
6724;DHT22;3399;52.530;13.304;2022-10-22T16:04:51;18.40;99.90
6724;DHT22;3399;52.530;13.304;2022-10-22T16:07:17;18.30;99.90
6724;DHT22;3399;52.530;13.304;2022-10-22T16:09:42;18.20;99.90
6724;DHT22;3399;52.530;13.304;2022-10-22T16:12:08;18.20;99.90
6724;DHT22;3399;52.530;13.304;2022-10-22T16:14:33;18.10;99.90
6724;DHT22;3399;52.530;13.304;2022-10-22T16:16:59;18.10;99.90
6724;DHT22;3399;52.530;13.304;2022-10-22T16:19:25;17.90;99.90
6724;DHT22;3399;52.530;13.304;2022-10-22T16:21:53;17.80;99.90
6724;DHT22;3399;52.530;13.304;2022-10-22T16:24:19;17.60;99.90
6724;DHT22;3399;52.530;13.304;2022-10-22T16:26:45;17.50;99.90
6724;DHT22;3399;52.530;13.304;2022-10-22T16:29:11;17.30;99.90
6724;DHT22;3399;52.530;13.304;2022-10-22T16:31:38;17.20;99.90
6724;DHT22;3399;52.530;13.304;2022-10-22T16:34:04;17.10;99.90
6724;DHT22;3399;52.530;13.304;2022-10-22T16:36:30;17.00;99.90
6724;DHT22;3399;52.530;13.304;2022-10-22T16:38:56;17.00;99.90
6724;DHT22;3399;52.530;13.304;2022-10-22T16:41:23;16.90;99.90
6724;DHT22;3399;52.530;13.304;2022-10-22T16:43:51;16.80;99.90
6724;DHT22;3399;52.530;13.304;2022-10-22T16:46:20;16.70;99.90
6724;DHT22;3399;52.530;13.304;2022-10-22T16:48:47;16.60;99.90
6724;DHT22;3399;52.530;13.304;2022-10-22T16:51:15;16.60;99.90
6724;DHT22;3399;52.530;13.304;2022-10-22T16:53:42;16.50;99.90
6724;DHT22;3399;52.530;13.304;2022-10-22T16:56:12;16.50;99.90
6724;DHT22;3399;52.530;13.304;2022-10-22T16:58:43;16.40;99.90
6724;DHT22;3399;52.530;13.304;2022-10-22T17:01:09;16.40;99.90
6724;DHT22;3399;52.530;13.304;2022-10-22T17:03:35;16.30;99.90
6724;DHT22;3399;52.530;13.304;2022-10-22T17:06:02;16.30;99.90
6724;DHT22;3399;52.530;13.304;2022-10-22T17:08:29;16.30;99.90
6724;DHT22;3399;52.530;13.304;2022-10-22T17:10:55;16.30;99.90
6724;DHT22;3399;52.530;13.304;2022-10-22T17:13:20;16.30;99.90
6724;DHT22;3399;52.530;13.304;2022-10-22T17:15:46;16.30;99.90
6724;DHT22;3399;52.530;13.304;2022-10-22T17:18:11;16.40;99.90
6724;DHT22;3399;52.530;13.304;2022-10-22T17:20:40;16.40;99.90
6724;DHT22;3399;52.530;13.304;2022-10-22T17:23:07;16.30;99.90
6724;DHT22;3399;52.530;13.304;2022-10-22T17:25:41;16.40;99.90
6724;DHT22;3399;52.530;13.304;2022-10-22T17:28:07;16.40;99.90
6724;DHT22;3399;52.530;13.304;2022-10-22T17:30:33;16.40;99.90
6724;DHT22;3399;52.530;13.304;2022-10-22T17:33:04;16.40;99.90
6724;DHT22;3399;52.530;13.304;2022-10-22T17:35:29;16.40;99.90
6724;DHT22;3399;52.530;13.304;2022-10-22T17:37:55;16.40;99.90